Station: Kowanyama  

  Atmospheric Gas Attenuation - ITU Rec 676-11   ----------------- dB/100km -----------------
Date Time Temp RH % AH g/m3 Dew Point Wind Direction Speed kph Gust kph Barometer mB Rainfall Since 9am 24GHz 47GHz 76GHz 122GHz 134GHz 241GHz
08/05 12:30 31.6 46 15.21 18.6 15 22 1011.7 0 32.4 30.7 55.2 145.8 155.0 538.7
08/05 12:20 31.6 44 14.54 18.2 13 17 1011.9 0 31.0 29.7 52.6 139.0 146.6 509.3
08/05 12:10 31.4 46 15.04 18.7 13 24 1012 0 32.1 30.5 54.7 144.5 153.3 532.6
08/05 12:00 31.3 46 14.96 18.3 17 24 1012.1 0 31.9 30.4 54.5 143.9 152.5 529.8
08/05 11:50 31.9 47 15.79 19.2 17 26 1012.2 0 33.6 31.5 57.3 151.4 161.9 562.7
08/05 11:40 30.8 48 15.2 18.8 15 19 1012.4 0 32.4 31.0 55.8 147.3 156.6 544.0
08/05 11:30 30.7 47 14.8 18.4 17 30 1012.6 0 31.6 30.4 54.3 143.4 151.7 526.9
08/05 11:20 30.9 48 15.28 18.6 9 15 1012.7 0 32.6 31.1 56.0 148.0 157.5 547.0
08/05 11:10 30.6 49 15.35 18.7 13 20 1012.9 0 32.8 31.3 56.5 149.3 159.0 552.3
08/05 11:00 30.2 49 15.02 18.3 17 26 1012.9 0 32.1 30.9 55.5 146.6 155.5 540.2
08/05 10:50 29.7 51 15.22 18.5 17 22 1013.1 0 32.6 31.5 56.7 149.7 159.2 552.8
08/05 10:40 30.2 50 15.33 18.9 17 20 1013.2 0 32.8 31.5 56.7 149.9 159.6 554.4
08/05 10:30 29.3 51 14.89 18.4 19 28 1013.3 0 31.9 31.1 55.6 146.9 155.7 540.7
08/05 10:20 29.2 52 15.1 18.6 20 28 1013.3 0 32.4 31.4 56.6 149.4 158.6 550.9
08/05 10:10 28.6 55 15.46 18.7 20 24 1013.4 0 33.2 32.3 58.5 154.4 164.7 571.9
08/05 10:00 28.8 56 15.91 19.4 15 24 1013.4 0 34.1 32.9 60.1 158.9 170.3 591.5
08/05 09:50 28.4 59 16.4 19.6 13 19 1013.5 0 35.1 33.9 62.5 165.2 177.9 617.9
08/05 09:40 28.5 60 16.77 20 13 19 1013.5 0 35.9 34.5 64.0 169.1 182.7 634.9
08/05 09:30 28 63 17.13 20.3 15 22 1013.5 0 36.7 35.3 65.9 174.3 189.0 656.6
08/05 09:20 27.6 64 17.03 20.2 15 20 1013.5 0 36.5 35.3 65.9 174.1 188.6 655.1
08/05 09:10 26.8 66 16.8 19.9 15 20 1013.5 0 36.1 35.2 65.5 173.2 187.3 650.5
08/05 09:00 26.7 69 17.47 20.5 13 19 1013.6 0 37.5 36.5 68.6 181.3 197.2 684.9
08/05 08:50 25.9 71 17.19 20.2 13 17 1013.5 0 37.0 36.3 68.0 179.9 195.2 677.8
08/05 08:40 26.1 72 17.63 20.7 7 11 1013.4 0 37.9 37.0 69.8 184.6 201.0 698.3
08/05 08:30 25.6 76 18.09 21.1 9 13 1013.4 0 39.0 38.1 72.4 191.4 209.2 726.7
08/05 08:20 25.2 78 18.16 21.1 6 7 1013.3 0 39.2 38.4 73.1 193.2 211.4 734.2
08/05 08:10 24.3 82 18.15 21 9 11 1013.2 0 39.2 38.8 73.9 195.4 213.8 742.3
08/05 08:00 23.9 84 18.17 21 7 9 1013.1 0 39.3 39.0 74.4 196.7 215.2 747.3
08/05 07:50 23.7 86 18.39 21.2 6 7 1013 0 39.8 39.5 75.6 199.9 219.2 761.0
08/05 07:40 23.3 87 18.19 21 4 6 1013 0 39.4 39.3 75.0 198.5 217.2 754.3
08/05 07:30 22.8 91 18.49 21.3 0 0 1012.9 0 40.1 40.1 77.0 203.6 223.4 775.6
08/05 07:20 22.1 93 18.15 20.9 0 0 1012.8 0 39.4 39.8 76.0 201.1 220.1 764.1
08/05 07:10 21.4 95 17.81 20.6 0 2 1012.8 0 38.8 39.5 75.1 198.6 216.8 752.5
08/05 07:00 21 95 17.4 20.2 4 6 1012.7 0 37.9 38.8 73.5 194.4 211.5 734.0
08/05 06:50 21.2 94 17.42 20.2 4 6 1012.6 0 38.0 38.8 73.4 194.1 211.2 733.1
08/05 06:40 21.3 94 17.52 20.3 2 6 1012.5 0 38.2 38.9 73.8 195.1 212.5 737.5
08/05 06:30 21.4 94 17.62 20.4 6 9 1012.4 0 38.4 39.1 74.2 196.1 213.8 741.9
08/05 06:20 21.3 94 17.52 20.3 6 7 1012.3 0 38.2 38.9 73.8 195.1 212.5 737.4
08/05 06:10 21.4 94 17.62 20.4 6 7 1012.3 0 38.4 39.1 74.2 196.1 213.7 741.9
08/05 06:00 21.4 94 17.62 20.4 6 7 1012.2 0 38.4 39.1 74.2 196.1 213.7 741.8
08/05 05:50 21.5 93 17.54 20.3 6 7 1012 0 38.2 38.9 73.7 194.8 212.2 736.4
08/05 05:40 21.7 91 17.36 20.2 4 6 1012 0 37.8 38.4 72.6 192.0 208.8 724.7
08/05 05:30 21.5 93 17.54 20.3 6 9 1011.8 0 38.2 38.8 73.6 194.7 212.1 736.3
08/05 05:20 21.6 92 17.45 20.2 6 7 1011.9 0 38.0 38.6 73.1 193.3 210.5 730.5
08/05 05:10 21.8 92 17.65 20.4 6 6 1011.8 0 38.4 38.9 73.9 195.4 213.0 739.3
08/05 05:00 21.9 90 17.37 20.2 4 6 1011.9 0 37.8 38.3 72.5 191.6 208.4 723.2
08/05 04:50 22.2 88 17.28 20.1 0 0 1011.8 0 37.6 38.0 71.7 189.7 206.1 715.5
08/05 04:40 22.4 87 17.28 20.1 4 6 1011.7 0 37.6 37.9 71.5 189.2 205.6 713.6
08/05 04:30 22.6 85 17.07 19.9 6 7 1011.7 0 37.1 37.4 70.4 186.0 201.8 700.5
08/05 04:20 22.4 88 17.48 20.3 6 7 1011.8 0 38.0 38.3 72.5 191.7 208.7 724.3
08/05 04:10 21.5 92 17.35 20.1 6 7 1011.8 0 37.8 38.5 72.7 192.3 209.2 726.0
08/05 04:00 21.6 93 17.64 20.4 4 7 1011.8 0 38.4 39.0 74.0 195.7 213.4 740.7
08/05 03:50 21.7 91 17.36 20.2 6 6 1011.7 0 37.8 38.4 72.6 191.9 208.7 724.5
08/05 03:40 22.4 88 17.48 20.3 7 7 1011.6 0 38.0 38.3 72.5 191.6 208.6 724.2
08/05 03:30 21.9 93 17.94 20.7 2 6 1011.6 0 39.0 39.4 75.2 198.8 217.2 754.0
08/05 03:20 22.1 94 18.35 21.1 0 0 1011.6 0 39.9 40.1 76.9 203.5 223.1 774.5
08/05 03:10 22.2 92 18.06 20.8 0 0 1011.6 0 39.3 39.5 75.4 199.5 218.2 757.5
08/05 03:00 22.4 90 17.87 20.7 6 7 1011.6 0 38.8 39.0 74.3 196.6 214.7 745.2
08/05 02:50 22.5 89 17.78 20.6 6 6 1011.7 0 38.6 38.8 73.8 195.2 213.0 739.4
08/05 02:40 22.9 88 17.98 20.8 6 6 1011.8 0 39.0 39.0 74.4 196.7 215.0 746.3
08/05 02:30 23.2 87 18.09 20.9 7 9 1011.9 0 39.2 39.1 74.6 197.3 215.8 749.3
08/05 02:20 23.7 85 18.18 21 7 7 1012 0 39.4 39.0 74.5 197.1 215.8 749.2
08/05 02:10 23.5 86 18.19 21 9 11 1012.2 0 39.4 39.2 74.8 197.8 216.5 751.9
08/05 02:00 23.8 84 18.07 20.9 13 26 1012.2 0 39.1 38.8 73.9 195.5 213.8 742.5
08/05 01:50 22.8 95 19.3 22 15 22 1012.2 0 41.8 41.7 80.9 214.0 236.2 820.0
08/05 01:40 22.6 94 18.88 21.6 0 0 1011.7 0 41.0 40.9 79.0 209.0 230.0 798.5
08/05 01:30 22.6 94 18.88 21.6 6 7 1011.7 0 41.0 40.9 79.0 209.0 230.0 798.5
08/05 01:20 22.6 95 19.08 21.8 6 7 1011.8 0 41.4 41.3 80.0 211.6 233.2 809.7
08/05 01:10 22.5 96 19.17 21.8 6 7 1011.9 0 41.6 41.5 80.5 213.1 235.0 815.9
08/05 01:00 22.4 97 19.26 21.9 4 7 1011.9 0 41.8 41.8 81.1 214.6 236.8 822.0
08/05 00:50 22.2 98 19.24 21.9 0 0 1012 0 41.8 41.8 81.2 214.9 237.1 823.2
08/05 00:40 22.1 97 18.93 21.6 0 0 1012 0 41.1 41.3 79.8 211.1 232.4 806.9
08/05 00:30 22.1 97 18.93 21.6 0 0 1012.1 0 41.1 41.3 79.8 211.1 232.4 806.9
08/05 00:20 22 97 18.82 21.5 0 0 1012.3 0 40.9 41.1 79.4 210.0 231.0 802.0
08/05 00:10 22.2 97 19.04 21.7 0 0 1012.4 0 41.4 41.5 80.3 212.3 233.9 812.1
08/05 00:00 22.2 96 18.85 21.5 0 0 1012.4 0 40.9 41.1 79.3 209.8 230.9 801.5
07/05 23:50 22.3 96 18.95 21.6 0 0 1012.4 0 41.1 41.2 79.7 210.9 232.2 806.0
07/05 23:40 22.5 96 19.17 21.8 0 0 1012.5 0 41.6 41.6 80.6 213.2 235.1 816.2
07/05 23:30 22.6 95 19.08 21.8 2 6 1012.6 0 41.4 41.3 80.0 211.7 233.3 810.2
07/05 23:20 22.8 94 19.1 21.8 4 6 1012.7 0 41.4 41.3 79.9 211.5 233.0 809.2
07/05 23:10 23 94 19.32 22 4 6 1012.7 0 41.9 41.6 80.8 213.8 235.9 819.2
07/05 23:00 23 93 19.11 21.8 6 7 1012.7 0 41.4 41.2 79.8 211.0 232.6 807.6
07/05 22:50 23 93 19.11 21.8 4 6 1012.8 0 41.4 41.2 79.8 211.0 232.6 807.6
07/05 22:40 23.3 92 19.23 21.9 6 7 1012.8 0 41.6 41.3 80.0 211.8 233.6 811.0
07/05 22:30 23.4 92 19.34 22 7 9 1012.9 0 41.9 41.5 80.5 212.9 235.0 816.1
07/05 22:20 23.5 91 19.24 21.9 7 9 1013 0 41.6 41.2 79.9 211.4 233.1 809.5
07/05 22:10 23.5 90 19.03 21.8 7 9 1013 0 41.2 40.8 78.9 208.6 229.8 797.9
07/05 22:00 23.7 90 19.25 22 7 9 1013.1 0 41.6 41.2 79.7 210.9 232.7 808.0
07/05 21:50 23.8 89 19.14 21.9 6 7 1013.1 0 41.4 40.9 79.1 209.2 230.6 800.8
07/05 21:40 24 89 19.36 22.1 6 7 1013.2 0 41.8 41.2 80.0 211.5 233.5 810.8
07/05 21:30 24.1 89 19.47 22.2 7 9 1013.2 0 42.1 41.4 80.4 212.7 234.9 815.8
07/05 21:20 24.3 88 19.47 22.2 7 9 1013.2 0 42.0 41.3 80.2 212.1 234.3 813.6
07/05 21:10 24.3 88 19.47 22.2 9 11 1013.2 0 42.0 41.3 80.2 212.1 234.3 813.6
07/05 21:00 24.4 87 19.36 22.1 7 11 1013.2 0 41.8 41.0 79.5 210.4 232.2 806.5
07/05 20:50 24.6 87 19.58 22.3 9 11 1013.1 0 42.2 41.3 80.4 212.7 235.0 816.4
07/05 20:40 24.5 87 19.47 22.2 9 11 1013.1 0 42.0 41.2 79.9 211.5 233.6 811.4
07/05 20:30 24.4 87 19.36 22.1 7 9 1013 0 41.8 41.0 79.5 210.4 232.2 806.4
07/05 20:20 24.5 87 19.47 22.2 7 7 1012.9 0 42.0 41.2 79.9 211.5 233.6 811.3
07/05 20:10 24.6 87 19.58 22.3 9 11 1012.8 0 42.2 41.3 80.4 212.6 235.0 816.2
07/05 20:00 24.6 87 19.58 22.3 6 7 1012.6 0 42.2 41.3 80.3 212.6 235.0 816.1

Last Refresh: 08-May-2026 12:07:38

Bureau of Meteorology